Time;durP1;ratioP1;P1;durP2;ratioP2;P2;SDS_P1;SDS_P2;PMS_P1;PMS_P2;Temp;Humidity;BMP_temperature;BMP_pressure;BME280_temperature;BME280_humidity;BME280_pressure;Samples;Min_cycle;Max_cycle;Signal;HPM_P1;HPM_P2
2021/11/01 00:00:36;;;;;;;14.00;2.97;;;;;;;8.22;99.72;99661.34;2091208;28;20021;-64
2021/11/01 00:01:36;;;;;;;16.27;3.00;;;;;;;8.21;99.74;99667.47;2090429;28;20398;-63
2021/11/01 00:02:37;;;;;;;10.98;3.03;;;;;;;8.35;98.55;99666.75;2082162;28;20022;-65
2021/11/01 00:03:38;;;;;;;14.73;3.20;;;;;;;8.36;98.50;99666.63;2090550;28;20398;-64
2021/11/01 00:04:40;;;;;;;10.32;2.40;;;;;;;8.32;98.72;99672.09;2091160;28;20029;-63
2021/11/01 00:05:40;;;;;;;16.17;2.83;;;;;;;8.28;98.93;99675.78;2091156;28;20017;-63
2021/11/01 00:06:41;;;;;;;15.00;2.97;;;;;;;8.30;98.61;99666.97;2091159;28;20029;-65
2021/11/01 00:07:41;;;;;;;9.83;2.70;;;;;;;8.33;98.61;99672.03;2090416;28;20032;-65
2021/11/01 00:08:42;;;;;;;9.43;2.67;;;;;;;8.33;98.04;99673.78;2090562;28;20025;-64
2021/11/01 00:09:42;;;;;;;15.60;3.45;;;;;;;8.33;98.39;99666.81;2091095;28;20780;-64
2021/11/01 00:10:43;;;;;;;16.37;3.37;;;;;;;8.30;97.88;99668.72;2091124;28;20029;-64
2021/11/01 00:11:43;;;;;;;10.03;2.80;;;;;;;8.25;98.59;99674.19;2091020;28;20533;-64
2021/11/01 00:12:44;;;;;;;12.43;2.33;;;;;;;8.20;98.76;99674.41;2090426;28;20020;-64
2021/11/01 00:13:44;;;;;;;16.15;2.47;;;;;;;8.21;98.50;99673.47;2090417;28;20051;-63
2021/11/01 00:14:44;;;;;;;12.90;3.60;;;;;;;8.21;98.59;99673.47;2090418;28;20020;-63
2021/11/01 00:15:45;;;;;;;9.23;3.03;;;;;;;8.21;98.68;99668.28;2090470;28;20493;-64
2021/11/01 00:16:45;;;;;;;16.13;3.27;;;;;;;8.23;98.17;99684.66;2091048;28;20051;-65
2021/11/01 00:17:45;;;;;;;16.80;2.33;;;;;;;8.29;97.79;99664.44;2091065;28;20025;-64
2021/11/01 00:18:46;;;;;;;9.10;2.30;;;;;;;8.34;97.38;99675.44;2091023;28;20025;-64
2021/11/01 00:19:46;;;;;;;9.27;2.80;;;;;;;8.31;97.65;99673.03;2090364;28;20009;-63
2021/11/01 00:20:46;;;;;;;9.90;2.47;;;;;;;8.24;97.44;99673.31;2090413;28;20067;-65
2021/11/01 00:21:47;;;;;;;10.47;3.23;;;;;;;8.18;97.89;99673.63;2090834;28;20382;-63
2021/11/01 00:22:47;;;;;;;10.97;2.93;;;;;;;8.16;98.18;99670.28;2090971;28;20021;-65
2021/11/01 00:23:47;;;;;;;9.17;2.53;;;;;;;8.17;97.87;99666.75;2090927;28;20029;-63
2021/11/01 00:24:48;;;;;;;15.25;3.10;;;;;;;8.13;98.21;99675.63;2091005;28;20029;-63
2021/11/01 00:25:50;;;;;;;11.55;3.17;;;;;;;8.12;98.78;99673.97;2091043;28;20033;-65
2021/11/01 00:26:51;;;;;;;10.35;3.33;;;;;;;8.10;98.65;99668.00;2091005;28;20104;-64
2021/11/01 00:27:51;;;;;;;12.57;3.23;;;;;;;8.08;98.93;99662.03;2090923;28;20470;-63
2021/11/01 00:28:51;;;;;;;17.50;3.13;;;;;;;8.08;98.59;99664.63;2090983;28;20096;-64
2021/11/01 00:29:52;;;;;;;11.30;2.83;;;;;;;8.15;98.21;99670.38;2090974;28;20023;-65
2021/11/01 00:30:56;;;;;;;14.65;2.90;;;;;;;8.14;97.99;99661.72;2090390;28;20029;-64
2021/11/01 00:31:56;;;;;;;13.05;2.63;;;;;;;8.10;98.21;99660.19;2090329;28;20056;-65
2021/11/01 00:32:56;;;;;;;9.20;2.43;;;;;;;8.04;98.50;99661.34;2090952;28;20024;-62
2021/11/01 00:33:57;;;;;;;11.37;2.70;;;;;;;8.00;98.49;99665.00;2090994;28;20029;-64
2021/11/01 00:34:59;;;;;;;11.30;2.87;;;;;;;7.99;98.68;99669.38;2090941;28;20029;-64
2021/11/01 00:36:00;;;;;;;10.02;2.63;;;;;;;8.02;98.58;99663.19;2090872;28;20033;-64
2021/11/01 00:37:00;;;;;;;7.63;2.35;;;;;;;8.01;98.27;99660.66;2090964;28;20421;-64
2021/11/01 00:38:00;;;;;;;13.80;4.47;;;;;;;7.96;98.90;99664.34;2090963;28;20035;-63
2021/11/01 00:39:01;;;;;;;16.87;3.40;;;;;;;8.01;98.66;99660.66;2090926;28;20029;-66
2021/11/01 00:40:02;;;;;;;13.90;3.05;;;;;;;8.01;98.31;99660.66;2090835;28;20025;-65
2021/11/01 00:41:03;;;;;;;12.07;2.63;;;;;;;7.99;98.69;99666.78;2090813;28;20024;-62
2021/11/01 00:42:05;;;;;;;15.23;3.27;;;;;;;7.95;98.96;99662.66;2090851;28;20032;-62
2021/11/01 00:43:06;;;;;;;12.18;2.63;;;;;;;7.95;98.84;99660.06;2090791;28;20025;-63
2021/11/01 00:44:06;;;;;;;8.20;2.07;;;;;;;7.95;98.80;99667.88;2090903;28;20107;-64
2021/11/01 00:45:06;;;;;;;9.57;2.20;;;;;;;7.95;98.86;99657.47;2090853;28;20504;-64
2021/11/01 00:46:07;;;;;;;13.70;2.58;;;;;;;7.96;98.64;99664.34;2090781;28;20027;-64
2021/11/01 00:47:11;;;;;;;8.85;2.47;;;;;;;8.07;98.51;99662.94;2090718;28;20633;-63
2021/11/01 00:48:11;;;;;;;12.10;2.63;;;;;;;8.08;97.79;99662.03;2090759;28;20094;-63
2021/11/01 00:49:11;;;;;;;14.43;2.73;;;;;;;8.05;98.17;99659.59;2090820;28;20029;-64
2021/11/01 00:50:12;;;;;;;18.48;4.00;;;;;;;7.98;98.51;99656.47;2090779;28;20021;-63
2021/11/01 00:51:13;;;;;;;11.70;2.35;;;;;;;7.94;98.18;99660.97;2090105;28;20052;-63
2021/11/01 00:52:13;;;;;;;15.15;3.13;;;;;;;7.92;98.26;99662.81;2090113;28;20020;-64
2021/11/01 00:53:14;;;;;;;12.27;2.72;;;;;;;7.91;98.58;99657.69;2090763;28;20029;-64
2021/11/01 00:54:15;;;;;;;10.85;2.75;;;;;;;7.96;98.68;99658.28;2090782;28;20434;-65
2021/11/01 00:55:23;;;;;;;8.97;2.17;;;;;;;7.98;97.71;99659.91;2090720;28;20436;-63
2021/11/01 00:56:23;;;;;;;13.25;3.40;;;;;;;8.01;97.80;99663.28;2090753;28;20021;-64
2021/11/01 00:57:24;;;;;;;15.67;3.03;;;;;;;8.00;97.80;99654.63;2090793;28;20025;-64
2021/11/01 00:58:26;;;;;;;11.65;2.88;;;;;;;8.01;98.05;99658.94;2090761;28;20025;-64
2021/11/01 00:59:27;;;;;;;15.90;2.65;;;;;;;8.04;97.53;99650.13;2090553;28;20036;-65
2021/11/01 01:00:29;;;;;;;9.83;2.90;;;;;;;8.04;97.54;99657.94;2090771;28;20414;-64
2021/11/01 01:01:32;;;;;;;10.73;2.88;;;;;;;7.99;97.67;99647.75;2090717;28;20032;-64
2021/11/01 01:02:33;;;;;;;14.98;3.45;;;;;;;8.01;97.62;99656.31;2089984;28;20057;-65
2021/11/01 01:03:33;;;;;;;15.75;3.40;;;;;;;7.96;97.77;99653.94;2089992;28;20556;-63
2021/11/01 01:04:34;;;;;;;11.90;2.93;;;;;;;7.93;97.67;99648.06;2098321;28;20028;-64
2021/11/01 01:05:34;;;;;;;15.82;2.72;;;;;;;7.96;97.71;99648.75;2090666;28;20020;-64
2021/11/01 01:06:35;;;;;;;11.70;2.83;;;;;;;7.91;97.82;99650.75;2090704;28;20466;-63
2021/11/01 01:07:36;;;;;;;6.57;1.80;;;;;;;7.85;98.33;99649.31;2089960;28;20047;-65
2021/11/01 01:08:37;;;;;;;13.80;2.42;;;;;;;7.82;98.43;99646.00;2090074;28;20053;-64
2021/11/01 01:09:38;;;;;;;10.88;2.65;;;;;;;7.85;98.46;99643.25;2090644;28;20021;-65
2021/11/01 01:10:39;;;;;;;9.60;2.22;;;;;;;7.83;98.63;99645.06;2090598;28;20060;-63
2021/11/01 01:11:39;;;;;;;12.93;3.00;;;;;;;7.85;98.71;99635.47;2090467;28;20466;-64
2021/11/01 01:12:42;;;;;;;10.70;2.30;;;;;;;7.84;98.86;99636.41;2090600;28;20080;-64
2021/11/01 01:13:42;;;;;;;14.18;2.45;;;;;;;7.82;98.60;99636.47;2090587;28;20071;-63
2021/11/01 01:14:52;;;;;;;16.60;2.63;;;;;;;7.84;98.55;99637.22;2090570;28;20108;-64
2021/11/01 01:16:54;;;;;;;10.27;2.50;;;;;;;7.82;99.07;99635.63;2090735;28;20021;-64
2021/11/01 01:18:02;;;;;;;9.65;2.33;;;;;;;7.76;99.19;99636.75;2090541;28;20093;-65
2021/11/01 01:19:02;;;;;;;6.45;2.25;;;;;;;7.83;99.10;99626.91;2089869;28;20424;-64
2021/11/01 01:20:05;;;;;;;6.23;2.30;;;;;;;7.79;98.97;99623.63;2089904;28;20021;-64
2021/11/01 01:22:29;;;;;;;12.52;3.03;;;;;;;7.80;99.05;99624.47;2089909;28;20041;-65
2021/11/01 01:23:29;;;;;;;14.90;2.15;;;;;;;7.79;98.73;99625.38;2090522;28;20506;-65
2021/11/01 01:24:29;;;;;;;10.57;2.60;;;;;;;7.77;98.84;99628.03;2090501;28;20052;-65
2021/11/01 01:25:37;;;;;;;12.97;2.00;;;;;;;7.71;99.03;99624.03;2090495;28;20058;-64
2021/11/01 01:26:38;;;;;;;12.70;2.45;;;;;;;7.72;99.56;99630.91;2090505;28;20020;-65
2021/11/01 01:27:39;;;;;;;11.43;3.33;;;;;;;7.71;99.40;99628.38;2090528;28;20044;-64
2021/11/01 01:28:40;;;;;;;14.07;2.25;;;;;;;7.69;99.73;99623.25;2090496;28;20083;-64
2021/11/01 01:29:40;;;;;;;12.03;2.20;;;;;;;7.73;99.16;99631.72;2090469;28;20445;-64
2021/11/01 01:30:41;;;;;;;9.87;1.93;;;;;;;7.76;99.03;99633.34;2089846;28;20307;-65
2021/11/01 01:31:41;;;;;;;10.40;2.13;;;;;;;7.73;98.88;99629.97;2089790;28;20029;-64
2021/11/01 01:32:44;;;;;;;8.23;2.25;;;;;;;7.71;99.40;99634.41;2089765;28;20024;-64
2021/11/01 01:33:44;;;;;;;9.35;2.00;;;;;;;7.70;99.50;99631.91;2089846;28;20033;-63
2021/11/01 01:34:44;;;;;;;6.30;2.10;;;;;;;7.66;99.46;99636.38;2090525;28;20060;-64
2021/11/01 01:35:44;;;;;;;8.90;2.13;;;;;;;7.67;99.69;99635.44;2090461;28;20021;-65
2021/11/01 01:36:45;;;;;;;14.80;2.60;;;;;;;7.68;99.49;99639.75;2090508;28;20025;-64
2021/11/01 01:37:46;;;;;;;9.00;2.38;;;;;;;7.70;99.75;99631.91;2090477;28;20470;-65
2021/11/01 01:38:46;;;;;;;10.73;1.90;;;;;;;7.70;99.87;99642.28;2089839;28;20013;-65
2021/11/01 01:39:47;;;;;;;7.73;2.07;;;;;;;7.71;99.43;99623.19;2089795;28;20021;-65
2021/11/01 01:40:47;;;;;;;13.65;2.95;;;;;;;7.69;99.59;99627.59;2090441;28;20017;-64
2021/11/01 01:41:47;;;;;;;10.50;2.60;;;;;;;7.68;100.00;99634.56;2090373;28;20020;-64
2021/11/01 01:42:50;;;;;;;11.63;1.90;;;;;;;7.68;100.00;99634.56;2090485;28;20098;-64
2021/11/01 01:43:53;;;;;;;9.13;2.03;;;;;;;7.68;99.64;99624.16;2090394;28;20024;-63
2021/11/01 01:44:53;;;;;;;6.78;2.15;;;;;;;7.69;99.81;99630.19;2090498;28;20020;-64
2021/11/01 01:45:53;;;;;;;11.00;2.43;;;;;;;7.71;99.98;99624.03;2089665;28;20136;-64
2021/11/01 01:46:54;;;;;;;12.10;1.97;;;;;;;7.81;99.67;99623.56;2089797;28;20116;-64
2021/11/01 01:47:54;;;;;;;9.53;1.97;;;;;;;7.82;99.58;99625.22;2090362;28;20094;-64
2021/11/01 01:48:56;;;;;;;11.70;2.17;;;;;;;7.78;99.19;99618.50;2090374;28;20394;-64
2021/11/01 01:49:56;;;;;;;8.25;2.22;;;;;;;7.75;99.30;99623.84;2090276;28;20023;-64
2021/11/01 01:50:58;;;;;;;5.57;2.10;;;;;;;7.70;99.65;99618.91;2089637;28;20103;-64
2021/11/01 01:51:59;;;;;;;11.45;2.10;;;;;;;7.70;99.81;99617.13;2089759;28;20469;-64
2021/11/01 01:52:59;;;;;;;9.37;2.00;;;;;;;7.72;100.00;99609.25;2089909;28;20025;-64
2021/11/01 01:54:00;;;;;;;14.53;3.13;;;;;;;7.78;99.56;99615.91;2090310;28;20083;-66
2021/11/01 01:55:00;;;;;;;11.57;2.47;;;;;;;7.80;99.79;99611.50;2090308;28;20021;-65
2021/11/01 01:56:02;;;;;;;11.17;2.17;;;;;;;7.88;99.59;99606.75;2089636;28;20028;-62
2021/11/01 01:57:03;;;;;;;7.60;1.98;;;;;;;7.84;99.13;99607.81;2089644;28;20035;-64
2021/11/01 01:58:04;;;;;;;13.90;2.55;;;;;;;7.76;99.55;99617.75;2090312;28;20024;-63
2021/11/01 01:59:06;;;;;;;10.50;1.60;;;;;;;7.75;99.75;99613.47;2089582;28;20146;-64
2021/11/01 02:01:38;;;;;;;9.05;2.58;;;;;;;7.72;99.94;99604.06;2081744;28;20041;-65
2021/11/01 02:02:40;;;;;;;11.47;2.40;;;;;;;7.73;99.69;99600.53;2090117;28;20041;-65
2021/11/01 02:03:45;;;;;;;6.75;1.98;;;;;;;7.80;99.33;99603.69;2090252;28;20029;-64
2021/11/01 02:04:46;;;;;;;6.15;1.83;;;;;;;7.84;99.52;99595.66;2090227;28;20027;-64
2021/11/01 02:05:59;;;;;;;10.13;1.97;;;;;;;7.81;99.32;99595.84;2090248;28;20028;-64
2021/11/01 02:07:13;;;;;;;7.88;2.53;;;;;;;7.78;99.72;99597.72;2090258;28;20286;-63
2021/11/01 02:08:17;;;;;;;8.82;1.63;;;;;;;7.75;99.34;99590.09;2090220;28;20031;-64
2021/11/01 02:09:24;;;;;;;7.90;2.15;;;;;;;7.74;99.75;99604.84;2090407;28;20055;-65
2021/11/01 02:10:42;;;;;;;7.63;1.73;;;;;;;7.71;99.56;99594.59;2090266;28;20417;-64
2021/11/01 02:12:01;;;;;;;12.57;1.92;;;;;;;7.71;99.84;99592.88;2090166;28;20029;-64
2021/11/01 02:13:06;;;;;;;10.05;2.03;;;;;;;7.71;99.54;99592.00;2090081;28;20033;-63
2021/11/01 02:14:10;;;;;;;12.30;3.28;;;;;;;7.70;100.00;99601.53;2090100;28;20021;-63
2021/11/01 02:15:18;;;;;;;6.45;1.80;;;;;;;7.67;99.80;99593.09;2089462;28;20128;-64
2021/11/01 02:16:18;;;;;;;10.95;2.20;;;;;;;7.68;99.86;99598.22;2089615;28;20037;-65
2021/11/01 02:17:27;;;;;;;9.20;2.08;;;;;;;7.69;100.00;99589.50;2089543;28;20048;-64
2021/11/01 02:18:30;;;;;;;12.48;2.35;;;;;;;7.71;99.67;99592.88;2089527;28;20131;-65
2021/11/01 02:19:39;;;;;;;10.18;2.08;;;;;;;7.75;99.75;99597.88;2090203;28;20029;-63
2021/11/01 02:21:05;;;;;;;10.45;1.92;;;;;;;7.71;99.51;99592.00;2090101;28;20027;-64
2021/11/01 02:22:09;;;;;;;9.05;2.22;;;;;;;7.65;100.00;99587.97;2090009;28;20040;-65
2021/11/01 02:23:23;;;;;;;7.32;2.20;;;;;;;7.66;100.00;99583.63;2090082;28;20029;-63
2021/11/01 02:24:46;;;;;;;11.38;2.38;;;;;;;7.70;100.00;99585.97;2090172;28;20029;-64
2021/11/01 02:25:52;;;;;;;10.52;2.05;;;;;;;7.70;100.00;99590.34;2090094;28;20021;-64
2021/11/01 02:26:53;;;;;;;6.85;2.15;;;;;;;7.66;100.00;99591.41;2089520;28;20048;-63
2021/11/01 02:27:54;;;;;;;6.88;2.15;;;;;;;7.63;100.00;99588.97;2081224;28;20037;-64
2021/11/01 02:28:55;;;;;;;10.63;2.35;;;;;;;7.60;100.00;99584.78;2081222;28;20044;-64
2021/11/01 02:29:56;;;;;;;6.70;1.83;;;;;;;7.58;100.00;99584.00;2089504;28;20032;-66
2021/11/01 02:30:58;;;;;;;5.07;1.50;;;;;;;7.63;100.00;99578.59;2090123;28;20031;-65
2021/11/01 02:31:59;;;;;;;16.48;2.47;;;;;;;7.70;100.00;99582.56;2089362;28;20036;-64
2021/11/01 02:33:01;;;;;;;9.73;2.17;;;;;;;7.71;100.00;99577.28;2089561;28;20074;-64
2021/11/01 02:34:02;;;;;;;8.63;2.25;;;;;;;7.67;100.00;99570.53;2090160;28;20040;-64
2021/11/01 02:35:04;;;;;;;10.30;2.30;;;;;;;7.64;100.00;99581.09;2090202;28;20021;-64
2021/11/01 02:36:05;;;;;;;10.40;2.13;;;;;;;7.61;100.00;99581.25;2090132;28;20481;-63
2021/11/01 02:37:06;;;;;;;9.70;2.17;;;;;;;7.59;100.00;99588.25;2090106;28;20389;-64
2021/11/01 02:38:08;;;;;;;8.73;1.90;;;;;;;7.59;100.00;99588.25;2090093;28;20107;-64
2021/11/01 02:39:08;;;;;;;13.23;2.45;;;;;;;7.56;100.00;99586.66;2090112;28;20048;-64
2021/11/01 02:40:10;;;;;;;9.63;2.23;;;;;;;7.55;100.00;99586.75;2090137;28;20025;-62
2021/11/01 02:41:24;;;;;;;7.82;1.90;;;;;;;7.52;100.00;99586.91;2090109;28;20029;-63
2021/11/01 02:42:27;;;;;;;12.13;2.97;;;;;;;7.53;100.00;99591.19;2090007;28;20080;-64
2021/11/01 02:43:27;;;;;;;8.07;2.40;;;;;;;7.55;100.00;99587.59;2090130;28;20031;-63
2021/11/01 02:44:28;;;;;;;4.97;1.70;;;;;;;7.57;100.00;99596.13;2090111;28;20044;-64
2021/11/01 02:45:29;;;;;;;10.15;2.75;;;;;;;7.60;100.00;99602.94;2090080;28;20405;-63
2021/11/01 02:46:31;;;;;;;7.93;1.90;;;;;;;7.57;100.00;99585.75;2089424;28;20063;-63
2021/11/01 02:47:32;;;;;;;9.57;2.40;;;;;;;7.64;100.00;99593.22;2081240;28;20029;-63
2021/11/01 02:48:32;;;;;;;11.02;2.72;;;;;;;7.69;100.00;99597.28;2089462;28;20096;-64
2021/11/01 02:49:32;;;;;;;8.17;1.83;;;;;;;7.69;100.00;99592.09;2090032;28;20040;-66
2021/11/01 02:50:34;;;;;;;9.63;2.50;;;;;;;7.68;100.00;99595.59;2090102;28;20075;-63
2021/11/01 02:51:34;;;;;;;;;;;;;;;7.68;100.00;99590.41;2090429;28;20095;-64
2021/11/01 02:52:35;;;;;;;8.93;2.15;;;;;;;7.66;100.00;99594.84;2090101;28;19909;-63
2021/11/01 02:53:35;;;;;;;;;;;;;;;7.65;100.00;99597.50;2090457;28;20074;-64
2021/11/01 02:54:36;;;;;;;13.63;3.63;;;;;;;7.66;100.00;99602.63;2090010;28;19913;-64
2021/11/01 02:55:37;;;;;;;10.13;2.40;;;;;;;7.69;100.00;99602.47;2090092;28;20358;-64
2021/11/01 02:56:37;;;;;;;8.95;2.20;;;;;;;7.72;100.00;99602.31;2090049;28;20547;-65
2021/11/01 02:57:39;;;;;;;12.80;2.73;;;;;;;7.72;100.00;99597.13;2090016;28;20017;-64
2021/11/01 02:58:40;;;;;;;9.25;2.20;;;;;;;7.73;100.00;99591.00;2089320;28;20028;-64
2021/11/01 02:59:40;;;;;;;;;;;;;;;7.78;100.00;99587.34;2081549;28;20091;-64
2021/11/01 03:00:41;;;;;;;5.35;2.05;;;;;;;7.80;100.00;99588.13;2089394;28;20373;-63
2021/11/01 03:01:41;;;;;;;14.27;4.78;;;;;;;7.78;100.00;99587.34;2089971;28;20032;-64
2021/11/01 03:02:42;;;;;;;10.37;1.90;;;;;;;7.76;100.00;99584.00;2089890;28;20033;-64
2021/11/01 03:03:43;;;;;;;10.63;2.78;;;;;;;7.71;100.00;99577.28;2089965;28;20393;-65
2021/11/01 03:04:43;;;;;;;9.82;2.25;;;;;;;7.75;100.00;99571.91;2090289;28;20017;-65
2021/11/01 03:05:44;;;;;;;13.38;3.05;;;;;;;7.78;100.00;99574.34;2091613;28;20023;-64
2021/11/01 03:06:45;;;;;;;10.48;2.20;;;;;;;7.76;100.00;99574.44;2090925;28;20497;-64
2021/11/01 03:07:47;;;;;;;8.63;2.30;;;;;;;7.74;100.00;99571.09;2090995;28;20020;-64
2021/11/01 03:08:48;;;;;;;6.45;2.00;;;;;;;7.77;100.00;99575.28;2091083;28;20398;-64
2021/11/01 03:09:51;;;;;;;9.80;2.15;;;;;;;7.78;100.00;99579.53;2091560;28;20474;-63
2021/11/01 03:10:53;;;;;;;12.02;2.17;;;;;;;7.76;100.00;99573.59;2091492;28;20056;-62
2021/11/01 03:11:55;;;;;;;10.27;2.15;;;;;;;7.75;100.00;99582.28;2091575;28;20459;-63
2021/11/01 03:12:56;;;;;;;11.88;2.53;;;;;;;7.71;100.00;99577.28;2091484;28;20029;-64
2021/11/01 03:13:58;;;;;;;11.38;2.17;;;;;;;7.72;100.00;99589.34;2091541;28;20379;-65
2021/11/01 03:15:02;;;;;;;6.07;2.22;;;;;;;7.72;100.00;99573.75;2091507;28;20037;-65
2021/11/01 03:16:05;;;;;;;11.27;2.60;;;;;;;7.73;100.00;99580.63;2090663;28;20025;-63
2021/11/01 03:17:07;;;;;;;10.23;2.28;;;;;;;7.74;100.00;99581.47;2090947;28;20021;-63
2021/11/01 03:18:09;;;;;;;9.68;2.78;;;;;;;7.76;100.00;99573.59;2091536;28;20104;-64
2021/11/01 03:19:18;;;;;;;8.02;2.25;;;;;;;7.80;100.00;99580.31;2091519;28;20024;-64
2021/11/01 03:20:30;;;;;;;7.20;1.75;;;;;;;7.84;99.86;99574.06;2091394;28;20060;-64
2021/11/01 03:21:31;;;;;;;7.35;2.22;;;;;;;7.83;100.00;99567.16;2091459;28;20028;-63
2021/11/01 03:22:35;;;;;;;;;;;;;;;7.84;99.76;99572.28;2091599;28;20044;-63
2021/11/01 03:23:37;;;;;;;6.18;2.20;;;;;;;7.86;99.85;99577.41;2091404;28;20366;-64
2021/11/01 03:24:40;;;;;;;9.73;2.03;;;;;;;7.85;99.87;99580.91;2091422;28;20421;-65
2021/11/01 03:25:48;;;;;;;4.68;1.70;;;;;;;7.86;100.00;99582.59;2091382;28;20025;-63
2021/11/01 03:26:49;;;;;;;14.25;2.55;;;;;;;7.81;99.75;99582.00;2091463;28;20028;-63
2021/11/01 03:27:51;;;;;;;15.88;3.72;;;;;;;7.80;99.93;99580.31;2090746;28;20067;-64
2021/11/01 03:28:55;;;;;;;7.88;2.08;;;;;;;7.79;99.93;99581.22;2090727;28;20172;-65
2021/11/01 03:29:56;;;;;;;14.07;2.95;;;;;;;7.74;99.80;99581.47;2090862;28;20029;-63
2021/11/01 03:30:58;;;;;;;;;;;;;;;7.72;100.00;99588.50;2091901;28;20033;-63
2021/11/01 03:32:00;;;;;;;15.18;3.20;;;;;;;7.72;100.00;99581.56;2091589;28;20369;-62
2021/11/01 03:33:02;;;;;;;9.45;2.45;;;;;;;7.73;100.00;99580.63;2090767;28;20516;-64
2021/11/01 03:34:04;;;;;;;7.72;2.25;;;;;;;7.73;100.00;99584.97;2090762;28;20422;-64
2021/11/01 03:35:05;;;;;;;9.35;2.92;;;;;;;7.73;99.91;99575.44;2090686;28;20379;-65
2021/11/01 03:36:07;;;;;;;8.50;2.47;;;;;;;7.88;99.70;99572.97;2090735;28;20449;-64
2021/11/01 03:37:11;;;;;;;;;;;;;;;7.86;99.44;99585.19;2091751;28;20053;-63
2021/11/01 03:38:13;;;;;;;10.02;2.08;;;;;;;7.85;99.44;99586.13;2091206;28;19909;-64
2021/11/01 03:39:14;;;;;;;13.05;2.25;;;;;;;7.82;99.33;99583.66;2090646;28;20405;-65
2021/11/01 03:40:19;;;;;;;13.00;3.40;;;;;;;7.86;99.27;99585.19;2090717;28;20033;-64
2021/11/01 03:41:22;;;;;;;8.25;2.50;;;;;;;7.86;99.26;99590.38;2090679;28;20451;-63
2021/11/01 03:42:24;;;;;;;13.18;2.83;;;;;;;7.83;99.29;99590.53;2082601;28;20525;-64
2021/11/01 03:43:29;;;;;;;8.25;2.25;;;;;;;7.81;99.74;99590.63;2090704;28;20021;-64
2021/11/01 03:44:33;;;;;;;13.88;2.25;;;;;;;7.83;100.00;99590.53;2091421;28;20025;-64
2021/11/01 03:45:34;;;;;;;8.90;2.40;;;;;;;7.82;99.01;99589.72;2090590;28;20021;-63
2021/11/01 03:48:01;;;;;;;10.95;3.00;;;;;;;7.84;99.43;99589.63;2091487;28;20094;-65
2021/11/01 03:49:04;;;;;;;10.88;2.63;;;;;;;7.83;99.44;99590.53;2090698;28;20375;-64
2021/11/01 03:50:16;;;;;;;10.73;2.67;;;;;;;7.80;99.46;99590.72;2090614;28;20035;-64
2021/11/01 03:51:38;;;;;;;12.15;2.50;;;;;;;7.76;99.55;99599.59;2091323;28;20031;-64
2021/11/01 03:52:36;;;;;;;14.95;2.67;;;;;;;7.81;99.37;99592.38;2091097;28;20390;-64
2021/11/01 03:53:38;;;;;;;9.30;2.60;;;;;;;7.78;99.11;99590.78;2091461;28;20048;-64
2021/11/01 03:54:39;;;;;;;11.80;2.80;;;;;;;7.73;99.44;99591.00;2090757;28;20021;-64
2021/11/01 03:55:40;;;;;;;8.95;2.80;;;;;;;7.70;99.92;99585.97;2090654;28;20017;-64
2021/11/01 03:56:42;;;;;;;9.65;1.95;;;;;;;7.71;99.83;99592.00;2091221;28;20084;-63
2021/11/01 03:57:44;;;;;;;13.88;2.67;;;;;;;7.70;99.79;99591.16;2091144;28;20025;-63
2021/11/01 03:58:45;;;;;;;17.33;4.38;;;;;;;7.75;99.19;99587.50;2091155;28;20068;-63
2021/11/01 03:59:46;;;;;;;12.85;2.72;;;;;;;7.75;99.09;99577.94;2091230;28;20021;-64
2021/11/01 04:00:46;;;;;;;10.93;2.58;;;;;;;7.71;99.37;99584.22;2091170;28;20031;-63
2021/11/01 04:01:48;;;;;;;11.27;3.20;;;;;;;7.69;99.64;99573.91;2091101;28;20033;-65
2021/11/01 04:02:48;;;;;;;13.48;2.75;;;;;;;7.72;99.34;99573.75;2091121;28;20429;-63
2021/11/01 04:03:48;;;;;;;9.43;2.60;;;;;;;7.71;99.12;99577.28;2091134;28;20037;-63
2021/11/01 04:04:52;;;;;;;8.17;2.40;;;;;;;7.71;99.75;99584.22;2091146;28;20341;-64
2021/11/01 04:05:59;;;;;;;10.98;2.42;;;;;;;7.69;99.21;99581.69;2090343;28;20466;-63
2021/11/01 04:07:00;;;;;;;17.75;3.33;;;;;;;7.67;99.83;99586.13;2090613;28;20123;-63
2021/11/01 04:08:00;;;;;;;7.25;2.28;;;;;;;7.63;99.42;99574.22;2090408;28;20527;-65
2021/11/01 04:09:03;;;;;;;11.38;2.60;;;;;;;7.68;99.54;99582.63;2090615;28;20033;-63
2021/11/01 04:10:04;;;;;;;11.88;3.03;;;;;;;7.70;99.12;99574.75;2091170;28;20025;-64
2021/11/01 04:11:04;;;;;;;10.20;3.42;;;;;;;7.72;99.30;99575.50;2091154;28;20364;-64
2021/11/01 04:12:05;;;;;;;9.60;1.97;;;;;;;7.73;99.07;99582.38;2090425;28;20047;-64
2021/11/01 04:13:05;;;;;;;14.43;3.50;;;;;;;7.72;99.36;99589.34;2090527;28;20036;-67
2021/11/01 04:14:12;;;;;;;13.37;2.80;;;;;;;7.76;98.84;99595.22;2090294;28;20033;-65
2021/11/01 04:15:20;;;;;;;13.82;2.45;;;;;;;7.76;98.82;99589.19;2090507;28;20048;-64
2021/11/01 04:16:24;;;;;;;12.68;2.58;;;;;;;7.75;98.70;99597.88;2090767;28;20134;-62
2021/11/01 04:17:27;;;;;;;9.48;2.75;;;;;;;7.72;98.51;99599.72;2091052;28;20406;-64
2021/11/01 04:18:37;;;;;;;15.95;4.32;;;;;;;7.76;99.04;99602.19;2091072;28;20494;-63
2021/11/01 04:20:05;;;;;;;10.38;2.47;;;;;;;7.76;98.10;99594.38;2091033;28;20401;-63
2021/11/01 04:20:58;;;;;;;10.90;2.13;;;;;;;7.75;98.39;99597.88;2090839;28;20414;-66
2021/11/01 04:21:59;;;;;;;12.27;2.83;;;;;;;7.82;98.25;99597.50;2090960;28;20061;-63
2021/11/01 04:23:04;;;;;;;9.97;2.70;;;;;;;7.79;98.58;99599.41;2091031;28;20609;-64
2021/11/01 04:24:05;;;;;;;10.65;3.08;;;;;;;7.81;98.49;99598.44;2090992;28;20021;-64
2021/11/01 04:25:08;;;;;;;8.13;3.38;;;;;;;7.87;97.97;99599.84;2091033;28;20068;-63
2021/11/01 04:26:09;;;;;;;11.07;2.85;;;;;;;7.85;97.81;99588.72;2090879;28;20542;-63
2021/11/01 04:27:09;;;;;;;12.07;2.50;;;;;;;7.81;97.88;99587.19;2090353;28;20029;-64
2021/11/01 04:28:10;;;;;;;10.93;2.67;;;;;;;7.79;98.14;99589.00;2090380;28;20032;-65
2021/11/01 04:29:11;;;;;;;8.70;2.27;;;;;;;7.79;98.18;99589.00;2091030;28;20100;-64
2021/11/01 04:30:11;;;;;;;;;;;;;;;7.75;98.11;99597.88;2091409;28;20028;-64
2021/11/01 04:31:18;;;;;;;6.55;1.73;;;;;;;7.72;98.32;99604.91;2090960;28;20289;-64
2021/11/01 04:33:20;;;;;;;15.97;2.20;;;;;;;7.71;98.39;99602.41;2091165;28;20045;-63
2021/11/01 04:34:37;;;;;;;9.57;2.55;;;;;;;7.69;98.17;99596.44;2090887;28;20394;-66
2021/11/01 04:35:38;;;;;;;14.55;2.58;;;;;;;7.79;98.03;99596.81;2090279;28;20104;-64
2021/11/01 04:36:40;;;;;;;12.45;2.55;;;;;;;7.79;97.74;99595.06;2090366;28;20563;-63
2021/11/01 04:37:42;;;;;;;;;;;;;;;7.75;98.08;99598.72;2091371;28;20396;-64
2021/11/01 04:42:28;;;;;;;10.50;2.37;;;;;;;7.68;98.33;99598.22;2090977;28;20032;-64
2021/11/01 04:53:40;;;;;;;14.18;2.92;;;;;;;7.77;97.21;99580.47;2090778;28;20028;-64
2021/11/01 04:54:40;;;;;;;14.07;3.22;;;;;;;7.73;97.58;99583.22;2090044;28;20021;-63
2021/11/01 04:55:42;;;;;;;9.80;3.93;;;;;;;7.81;97.08;99576.81;2090151;28;20036;-63
2021/11/01 04:56:42;;;;;;;7.63;1.73;;;;;;;7.83;96.99;99575.78;2090781;28;20035;-64
2021/11/01 04:57:43;;;;;;;7.07;2.35;;;;;;;7.81;96.83;99563.81;2090087;28;20017;-64
2021/11/01 04:58:46;;;;;;;16.37;3.23;;;;;;;7.79;97.11;99576.03;2090146;28;20474;-65
2021/11/01 04:59:47;;;;;;;9.52;2.63;;;;;;;7.81;97.03;99567.25;2090050;28;20059;-64
2021/11/01 05:00:49;;;;;;;12.00;3.20;;;;;;;7.82;96.90;99573.28;2090183;28;20025;-63
2021/11/01 05:01:53;;;;;;;9.60;2.47;;;;;;;7.76;96.92;99568.41;2090752;28;20020;-64
2021/11/01 05:03:56;;;;;;;9.63;2.42;;;;;;;7.67;97.61;99565.34;2090581;28;20104;-65
2021/11/01 05:04:32;;;;;;;10.25;2.40;;;;;;;7.66;97.66;99574.06;2089955;28;20112;-63
2021/11/01 05:05:33;;;;;;;10.93;3.08;;;;;;;7.72;97.19;99578.97;2090652;28;20055;-64
2021/11/01 05:06:35;;;;;;;12.23;2.35;;;;;;;7.68;97.21;99574.84;2090699;28;20025;-63
2021/11/01 05:07:37;;;;;;;20.08;2.85;;;;;;;7.64;97.48;99583.69;2090649;28;20021;-65
2021/11/01 05:08:45;;;;;;;11.30;2.55;;;;;;;7.64;97.68;99575.06;2090783;28;20025;-64
2021/11/01 05:09:58;;;;;;;8.77;2.70;;;;;;;7.64;97.72;99583.69;2090666;28;20025;-66
2021/11/01 05:11:04;;;;;;;9.88;2.20;;;;;;;7.65;97.25;99574.13;2090023;28;20063;-64
2021/11/01 05:13:28;;;;;;;10.48;2.70;;;;;;;7.70;97.02;99574.75;2090676;28;20394;-65
2021/11/01 05:14:39;;;;;;;9.15;2.75;;;;;;;7.69;97.04;99579.09;2090598;28;20037;-65
2021/11/01 05:15:49;;;;;;;11.30;2.95;;;;;;;7.67;96.95;99586.13;2090669;28;20025;-64
2021/11/01 05:17:39;;;;;;;14.35;2.95;;;;;;;7.68;97.46;99581.78;2090652;28;20029;-64
2021/11/01 05:18:29;;;;;;;13.75;2.50;;;;;;;7.71;96.92;99579.88;2090060;28;20029;-66